createdAt,value
2019-05-30T00:02:09.288Z,101891.14
2019-05-30T00:04:41.669Z,101893.50
2019-05-30T00:07:14.327Z,101894.45
2019-05-30T00:09:46.298Z,101894.99
2019-05-30T00:12:18.147Z,101898.98
2019-05-30T00:14:50.511Z,101902.80
2019-05-30T00:17:22.247Z,101900.89
2019-05-30T00:19:55.059Z,101909.08
2019-05-30T00:22:27.047Z,101906.78
2019-05-30T00:25:00.057Z,101908.01
2019-05-30T00:27:31.490Z,101904.63
2019-05-30T00:30:03.576Z,101913.59
2019-05-30T00:32:36.245Z,101915.02
2019-05-30T00:35:08.476Z,101917.00
2019-05-30T00:37:40.083Z,101919.55
2019-05-30T00:40:12.942Z,101917.00
2019-05-30T00:42:45.237Z,101917.87
2019-05-30T00:45:21.046Z,101918.41
2019-05-30T00:47:50.623Z,101921.00
2019-05-30T00:50:22.641Z,101923.08
2019-05-30T00:52:54.252Z,101920.38
2019-05-30T00:55:26.383Z,101924.26
2019-05-30T00:57:58.945Z,101918.45
2019-05-30T01:00:42.654Z,101917.30
2019-05-30T01:03:09.016Z,101918.84
2019-05-30T01:05:40.950Z,101917.17
2019-05-30T01:08:12.427Z,101908.11
2019-05-30T01:10:44.784Z,101907.21
2019-05-30T01:13:17.013Z,101908.25
2019-05-30T01:15:48.083Z,101905.18
2019-05-30T01:18:20.348Z,101904.64
2019-05-30T01:20:52.424Z,101896.88
2019-05-30T01:23:24.311Z,101901.28
2019-05-30T01:25:57.300Z,101902.96
2019-05-30T01:28:29.378Z,101909.32
2019-05-30T01:31:07.415Z,101909.06
2019-05-30T01:33:34.901Z,101910.86
2019-05-30T01:36:08.385Z,101905.81
2019-05-30T01:38:40.306Z,101900.53
2019-05-30T01:41:12.847Z,101898.84
2019-05-30T01:43:44.375Z,101907.75
2019-05-30T01:46:16.438Z,101903.23
2019-05-30T01:48:48.931Z,101915.49
2019-05-30T01:51:20.842Z,101920.14
2019-05-30T01:53:52.547Z,101914.45
2019-05-30T01:56:24.458Z,101918.72
2019-05-30T01:58:56.223Z,101924.13
2019-05-30T02:01:27.764Z,101918.69
2019-05-30T02:04:01.078Z,101921.29
2019-05-30T02:06:32.982Z,101916.25
2019-05-30T02:09:05.948Z,101912.48
2019-05-30T02:11:38.063Z,101906.92
2019-05-30T02:14:09.950Z,101917.27
2019-05-30T02:16:42.570Z,101915.71
2019-05-30T02:19:14.128Z,101912.62
2019-05-30T02:21:45.919Z,101920.62
2019-05-30T02:24:17.741Z,101917.50
2019-05-30T02:26:50.356Z,101924.95
2019-05-30T02:29:22.022Z,101916.03
2019-05-30T02:31:54.404Z,101922.88
2019-05-30T02:34:26.034Z,101921.20
2019-05-30T02:36:58.629Z,101927.00
2019-05-30T02:39:30.748Z,101922.73
2019-05-30T02:42:03.195Z,101928.69
2019-05-30T02:44:35.365Z,101930.09
2019-05-30T02:47:07.485Z,101932.52
2019-05-30T02:49:39.144Z,101938.20
2019-05-30T02:52:12.984Z,101936.28
2019-05-30T02:54:44.778Z,101937.88
2019-05-30T02:57:16.041Z,101937.84
2019-05-30T02:59:48.953Z,101943.09
2019-05-30T03:02:21.348Z,101950.34
2019-05-30T03:04:52.917Z,101953.82
2019-05-30T03:07:25.308Z,101959.50
2019-05-30T03:09:57.647Z,101954.39
2019-05-30T03:12:29.307Z,101956.70
2019-05-30T03:15:02.570Z,101962.30
2019-05-30T03:17:34.885Z,101953.27
2019-05-30T03:20:14.964Z,101958.09
2019-05-30T03:22:43.400Z,101961.06
2019-05-30T03:25:16.562Z,101962.36
2019-05-30T03:27:48.492Z,101959.42
2019-05-30T03:30:27.496Z,101960.48
2019-05-30T03:33:15.467Z,101959.30
2019-05-30T03:35:31.528Z,101967.60
2019-05-30T03:38:03.290Z,101965.29
2019-05-30T03:40:35.130Z,101960.75
2019-05-30T03:43:09.198Z,101963.88
2019-05-30T03:45:42.239Z,101962.77
2019-05-30T03:48:16.539Z,101964.72
2019-05-30T03:50:51.211Z,101963.17
2019-05-30T03:53:24.158Z,101962.92
2019-05-30T03:56:00.348Z,101961.17
2019-05-30T03:58:35.506Z,101963.64
2019-05-30T04:01:12.470Z,101961.31
2019-05-30T04:03:46.944Z,101958.47
2019-05-30T04:06:22.652Z,101961.59
2019-05-30T04:08:58.007Z,101956.92
2019-05-30T04:11:33.657Z,101953.18
2019-05-30T04:14:09.419Z,101962.10
2019-05-30T04:16:42.648Z,101957.42
2019-05-30T04:19:15.606Z,101962.05
2019-05-30T04:21:48.205Z,101971.09
2019-05-30T04:24:20.210Z,101964.05
2019-05-30T04:26:51.989Z,101960.01
2019-05-30T04:29:25.124Z,101958.41
2019-05-30T04:31:56.675Z,101957.69
2019-05-30T04:34:28.794Z,101961.66
2019-05-30T04:37:00.598Z,101965.34
2019-05-30T04:39:31.829Z,101966.56
2019-05-30T04:42:03.555Z,101965.94
2019-05-30T04:44:35.210Z,101967.91
2019-05-30T04:47:09.886Z,101972.98
2019-05-30T04:49:42.358Z,101979.91
2019-05-30T04:52:19.889Z,101977.28
2019-05-30T04:54:48.907Z,101979.48
2019-05-30T04:57:25.788Z,101981.04
2019-05-30T04:59:53.522Z,101979.55
2019-05-30T05:02:25.445Z,101978.22
2019-05-30T05:04:58.404Z,101980.17
2019-05-30T05:07:30.348Z,101981.34
2019-05-30T05:10:02.697Z,101975.91
2019-05-30T05:12:35.000Z,101974.42
2019-05-30T05:15:08.424Z,101980.20
2019-05-30T05:17:39.847Z,101981.35
2019-05-30T05:20:13.053Z,101983.55
2019-05-30T05:22:45.619Z,101977.19
2019-05-30T05:25:17.466Z,101978.16
2019-05-30T05:27:50.108Z,101977.00
2019-05-30T05:30:22.552Z,101982.81
2019-05-30T05:32:54.368Z,101987.84
2019-05-30T05:35:26.032Z,101985.17
2019-05-30T05:37:59.766Z,101995.22
2019-05-30T05:40:31.720Z,101993.03
2019-05-30T05:43:03.597Z,101991.93
2019-05-30T05:45:35.369Z,101986.31
2019-05-30T05:48:08.307Z,101993.72
2019-05-30T05:50:39.517Z,101989.91
2019-05-30T05:53:11.206Z,101993.81
2019-05-30T05:55:43.143Z,101994.55
2019-05-30T05:58:16.783Z,101985.83
2019-05-30T06:00:49.341Z,101980.99
2019-05-30T06:03:22.258Z,101982.06
2019-05-30T06:05:54.262Z,101985.30
2019-05-30T06:08:26.263Z,101987.84
2019-05-30T06:10:58.795Z,101985.98
2019-05-30T06:13:31.042Z,101987.48
2019-05-30T06:16:03.251Z,101984.68
2019-05-30T06:18:36.851Z,101984.19
2019-05-30T06:21:08.673Z,101990.42
2019-05-30T06:23:41.233Z,101998.41
2019-05-30T06:26:13.712Z,101988.20
2019-05-30T06:28:45.226Z,101990.59
2019-05-30T06:31:16.734Z,101988.80
2019-05-30T06:33:48.582Z,101991.94
2019-05-30T06:36:20.864Z,101985.03
2019-05-30T06:38:53.581Z,101993.17
2019-05-30T06:41:25.592Z,101989.85
2019-05-30T06:43:57.613Z,101992.37
2019-05-30T06:46:30.528Z,101990.16
2019-05-30T06:49:03.873Z,101992.87
2019-05-30T06:51:35.947Z,101982.80
2019-05-30T06:54:08.062Z,101994.20
2019-05-30T06:56:40.638Z,101991.91
2019-05-30T06:59:12.560Z,101991.30
2019-05-30T07:01:45.195Z,101987.41
2019-05-30T07:04:17.344Z,101997.39
2019-05-30T07:06:49.520Z,101994.90
2019-05-30T07:09:22.690Z,101990.22
2019-05-30T07:11:54.624Z,101985.13
2019-05-30T07:14:27.445Z,101983.15
2019-05-30T07:16:59.643Z,101984.30
2019-05-30T07:19:31.914Z,101983.88
2019-05-30T07:22:04.545Z,101982.94
2019-05-30T07:24:36.680Z,101980.63
2019-05-30T07:27:08.561Z,101975.26
2019-05-30T07:29:40.708Z,101984.88
2019-05-30T07:32:13.596Z,101980.78
2019-05-30T07:34:46.274Z,101975.14
2019-05-30T07:37:18.128Z,101975.27
2019-05-30T07:39:49.637Z,101975.75
2019-05-30T07:42:20.946Z,101974.12
2019-05-30T07:44:52.373Z,101973.03
2019-05-30T07:47:25.904Z,101974.71
2019-05-30T07:49:58.695Z,101977.88
2019-05-30T07:52:30.827Z,101981.57
2019-05-30T07:55:02.988Z,101978.86
2019-05-30T07:57:35.044Z,101977.36
2019-05-30T08:00:10.077Z,101977.62
2019-05-30T08:02:44.123Z,101977.27
2019-05-30T08:05:24.362Z,101982.03
2019-05-30T08:07:49.278Z,101985.84
2019-05-30T08:10:22.988Z,101985.11
2019-05-30T08:12:55.016Z,101979.48
2019-05-30T08:15:29.153Z,101982.67
2019-05-30T08:18:01.998Z,101972.87
2019-05-30T08:20:34.384Z,101978.48
2019-05-30T08:23:09.506Z,101984.31
2019-05-30T08:25:39.678Z,101972.61
2019-05-30T08:28:11.568Z,101970.69
2019-05-30T08:30:43.752Z,101975.95
2019-05-30T08:33:17.040Z,101978.16
2019-05-30T08:35:50.108Z,101971.89
2019-05-30T08:38:21.621Z,101979.75
2019-05-30T08:40:54.197Z,101983.42
2019-05-30T08:43:25.810Z,101978.44
2019-05-30T08:45:58.156Z,101979.03
2019-05-30T08:48:29.835Z,101978.59
2019-05-30T08:51:01.537Z,101969.37
2019-05-30T08:53:32.769Z,101971.59
2019-05-30T08:56:05.081Z,101969.27
2019-05-30T08:58:36.824Z,101976.60
2019-05-30T09:01:08.340Z,101966.45
2019-05-30T09:03:40.255Z,101960.59
2019-05-30T09:06:12.510Z,101964.46
2019-05-30T09:08:47.041Z,101953.30
2019-05-30T09:11:17.653Z,101957.95
2019-05-30T09:13:48.737Z,101957.98
2019-05-30T09:16:19.915Z,101952.59
2019-05-30T09:18:51.478Z,101947.63
2019-05-30T09:21:23.375Z,101945.89
2019-05-30T09:23:57.688Z,101944.31
2019-05-30T09:26:28.084Z,101939.94
2019-05-30T09:28:58.497Z,101935.47
2019-05-30T09:31:34.676Z,101930.97
2019-05-30T09:34:11.986Z,101934.77
2019-05-30T09:36:41.231Z,101939.67
2019-05-30T09:39:11.748Z,101939.01
2019-05-30T09:41:45.620Z,101930.73
2019-05-30T09:44:17.738Z,101939.11
2019-05-30T09:46:48.573Z,101933.84
2019-05-30T09:49:20.936Z,101923.48
2019-05-30T09:51:51.908Z,101923.88
2019-05-30T09:54:22.328Z,101923.38
2019-05-30T09:56:57.146Z,101920.77
2019-05-30T09:59:25.943Z,101918.59
2019-05-30T10:01:56.903Z,101925.70
2019-05-30T10:04:27.889Z,101918.41
2019-05-30T10:06:58.254Z,101924.53
2019-05-30T10:09:29.712Z,101917.20
2019-05-30T10:12:01.649Z,101920.00
2019-05-30T10:14:32.808Z,101913.67
2019-05-30T10:17:03.482Z,101915.88
2019-05-30T10:19:35.105Z,101909.98
2019-05-30T10:22:09.012Z,101912.13
2019-05-30T10:24:43.060Z,101907.43
2019-05-30T10:27:13.637Z,101910.69
2019-05-30T10:29:46.337Z,101903.50
2019-05-30T10:32:17.992Z,101898.41
2019-05-30T10:34:49.545Z,101904.41
2019-05-30T10:37:21.482Z,101900.54
2019-05-30T10:39:57.203Z,101899.92
2019-05-30T10:42:25.698Z,101904.50
2019-05-30T10:44:56.944Z,101897.91
2019-05-30T10:47:28.072Z,101896.91
2019-05-30T10:49:58.919Z,101890.75
2019-05-30T10:52:30.142Z,101890.22
2019-05-30T10:55:00.932Z,101885.83
2019-05-30T10:57:32.275Z,101883.16
2019-05-30T11:00:09.104Z,101879.98
2019-05-30T11:02:38.369Z,101882.88
2019-05-30T11:05:10.311Z,101884.74
2019-05-30T11:07:55.117Z,101870.55
2019-05-30T11:10:17.835Z,101872.27
2019-05-30T11:12:49.742Z,101871.03
2019-05-30T11:15:22.543Z,101870.34
2019-05-30T11:17:54.830Z,101870.97
2019-05-30T11:20:26.772Z,101866.68
2019-05-30T11:22:59.289Z,101866.64
2019-05-30T11:25:30.399Z,101860.63
2019-05-30T11:28:01.780Z,101868.59
2019-05-30T11:30:32.535Z,101856.23
2019-05-30T11:33:03.203Z,101855.95
2019-05-30T11:35:33.473Z,101846.66
2019-05-30T11:38:04.578Z,101848.38
2019-05-30T11:40:37.042Z,101849.84
2019-05-30T11:43:09.141Z,101846.22
2019-05-30T11:45:40.227Z,101842.42
2019-05-30T11:48:11.375Z,101837.91
2019-05-30T11:50:44.425Z,101834.25
2019-05-30T11:53:19.792Z,101837.71
2019-05-30T11:55:52.249Z,101834.15
2019-05-30T11:58:23.991Z,101831.67
2019-05-30T12:00:56.377Z,101830.00
2019-05-30T12:03:29.382Z,101825.06
2019-05-30T12:05:59.371Z,101830.52
2019-05-30T12:08:30.580Z,101830.15
2019-05-30T12:11:01.407Z,101824.23
2019-05-30T12:13:32.505Z,101827.48
2019-05-30T12:16:03.030Z,101818.68
2019-05-30T12:18:33.561Z,101820.45
2019-05-30T12:21:05.578Z,101812.36
2019-05-30T12:23:36.259Z,101817.86
2019-05-30T12:26:08.631Z,101811.00
2019-05-30T12:28:39.091Z,101796.45
2019-05-30T12:31:09.762Z,101804.30
2019-05-30T12:33:40.844Z,101803.42
2019-05-30T12:36:12.166Z,101800.02
2019-05-30T12:38:43.127Z,101799.19
2019-05-30T12:41:15.760Z,101798.89
2019-05-30T12:43:48.737Z,101798.71
2019-05-30T12:46:20.842Z,101781.05
2019-05-30T12:49:11.331Z,101794.91
2019-05-30T12:51:46.375Z,101788.70
2019-05-30T12:54:18.242Z,101788.30
2019-05-30T12:56:51.893Z,101787.66
2019-05-30T12:59:28.704Z,101781.12
2019-05-30T13:02:07.281Z,101784.90
2019-05-30T13:04:39.314Z,101786.59
2019-05-30T13:07:09.940Z,101779.08
2019-05-30T13:09:41.060Z,101778.94
2019-05-30T13:12:12.530Z,101778.34
2019-05-30T13:14:43.375Z,101779.14
2019-05-30T13:17:13.585Z,101772.00
2019-05-30T13:19:44.884Z,101771.47
2019-05-30T13:22:15.455Z,101765.23
2019-05-30T13:24:46.168Z,101768.94
2019-05-30T13:27:16.745Z,101772.13
2019-05-30T13:33:24.636Z,101765.59
2019-05-30T13:35:56.890Z,101758.38
2019-05-30T13:38:28.988Z,101756.32
2019-05-30T13:40:59.727Z,101755.43
2019-05-30T13:43:31.183Z,101753.33
2019-05-30T13:46:02.873Z,101746.92
2019-05-30T13:48:34.220Z,101749.30
2019-05-30T13:51:05.325Z,101746.82
2019-05-30T13:53:36.575Z,101742.55
2019-05-30T13:56:09.694Z,101746.63
2019-05-30T13:58:41.511Z,101741.83
2019-05-30T14:01:14.089Z,101740.10
2019-05-30T14:03:45.807Z,101735.54
2019-05-30T14:06:16.981Z,101746.13
2019-05-30T14:08:50.680Z,101732.72
2019-05-30T14:11:21.264Z,101730.47
2019-05-30T14:13:52.745Z,101731.95
2019-05-30T14:16:23.682Z,101738.78
2019-05-30T14:18:54.236Z,101733.06
2019-05-30T14:21:24.972Z,101740.09
2019-05-30T14:23:56.535Z,101738.50
2019-05-30T14:26:28.544Z,101731.91
2019-05-30T14:28:59.462Z,101737.67
2019-05-30T14:31:29.966Z,101735.78
2019-05-30T14:34:02.093Z,101732.63
2019-05-30T14:36:34.089Z,101721.81
2019-05-30T14:39:06.872Z,101715.84
2019-05-30T14:41:37.924Z,101715.11
2019-05-30T14:44:10.135Z,101721.52
2019-05-30T14:46:41.541Z,101724.38
2019-05-30T14:49:12.801Z,101727.55
2019-05-30T14:51:43.577Z,101731.44
2019-05-30T14:54:14.249Z,101726.90
2019-05-30T14:56:44.968Z,101723.33
2019-05-30T14:59:15.722Z,101724.25
2019-05-30T15:01:46.675Z,101724.08
2019-05-30T15:04:18.228Z,101727.02
2019-05-30T15:06:49.006Z,101723.06
2019-05-30T15:09:25.793Z,101722.12
2019-05-30T15:11:52.987Z,101716.66
2019-05-30T15:14:24.661Z,101718.52
2019-05-30T15:16:55.415Z,101716.44
2019-05-30T15:19:26.308Z,101715.27
2019-05-30T15:21:57.231Z,101717.92
2019-05-30T16:01:03.942Z,101697.67
2019-05-30T16:03:34.523Z,101703.34
2019-05-30T16:06:05.694Z,101696.11
2019-05-30T16:08:36.182Z,101688.08
2019-05-30T16:11:07.004Z,101685.89
2019-05-30T16:13:37.664Z,101686.06
2019-05-30T16:16:08.436Z,101693.14
2019-05-30T16:18:38.484Z,101697.06
2019-05-30T16:21:13.036Z,101688.80
2019-05-30T16:23:41.623Z,101686.82
2019-05-30T16:26:11.513Z,101689.99
2019-05-30T16:28:42.411Z,101690.66
2019-05-30T16:31:13.786Z,101691.10
2019-05-30T16:33:43.945Z,101686.47
2019-05-30T16:36:16.058Z,101686.02
2019-05-30T16:38:47.491Z,101689.12
2019-05-30T16:41:18.257Z,101685.56
2019-05-30T16:43:49.049Z,101682.27
2019-05-30T16:46:20.544Z,101675.77
2019-05-30T16:48:52.019Z,101678.06
2019-05-30T16:51:23.875Z,101682.46
2019-05-30T16:53:57.097Z,101671.60
2019-05-30T16:56:27.821Z,101673.36
2019-05-30T16:59:01.531Z,101675.96
2019-05-30T17:01:37.596Z,101674.19
2019-05-30T17:04:11.301Z,101675.36
2019-05-30T17:06:44.482Z,101678.26
2019-05-30T17:09:17.165Z,101673.47
2019-05-30T17:11:47.790Z,101670.83
2019-05-30T17:14:19.736Z,101669.88
2019-05-30T17:16:52.336Z,101668.77
2019-05-30T17:19:27.881Z,101673.03
2019-05-30T17:21:59.524Z,101665.20
2019-05-30T17:24:32.288Z,101661.23
2019-05-30T17:27:03.709Z,101662.91
2019-05-30T17:29:35.166Z,101663.22
2019-05-30T17:32:06.104Z,101662.17
2019-05-30T17:34:36.554Z,101661.88
2019-05-30T17:37:08.234Z,101662.31
2019-05-30T17:39:39.252Z,101663.92
2019-05-30T17:42:10.561Z,101663.84
2019-05-30T17:44:41.269Z,101658.97
2019-05-30T17:47:12.832Z,101666.24
2019-05-30T17:49:48.256Z,101665.70
2019-05-30T17:52:19.896Z,101665.47
2019-05-30T17:54:50.677Z,101664.69
2019-05-30T17:57:23.887Z,101667.90
2019-05-30T17:59:54.858Z,101674.78
2019-05-30T18:02:30.508Z,101680.47
2019-05-30T18:30:10.531Z,101695.44
2019-05-30T18:32:48.304Z,101702.33
2019-05-30T18:35:22.406Z,101699.16
2019-05-30T18:37:57.329Z,101702.80
2019-05-30T18:40:33.284Z,101706.97
2019-05-30T18:43:20.005Z,101704.02
2019-05-30T18:45:51.285Z,101698.81
2019-05-30T18:52:55.903Z,101707.14
2019-05-30T18:55:33.366Z,101712.71
2019-05-30T18:58:07.476Z,101703.08
2019-05-30T19:00:37.611Z,101700.27
2019-05-30T19:03:08.596Z,101706.72
2019-05-30T19:05:40.653Z,101708.95
2019-05-30T19:08:12.872Z,101711.31
2019-05-30T19:10:49.096Z,101721.52
2019-05-30T19:38:20.444Z,101726.52
2019-05-30T19:49:20.304Z,101727.29
2019-05-30T19:51:51.376Z,101726.98
2019-05-30T19:54:21.766Z,101727.92
2019-05-30T19:56:52.125Z,101730.88
2019-05-30T19:59:22.432Z,101729.03
2019-05-30T20:02:08.922Z,101723.02
2019-05-30T20:05:21.563Z,101723.36
2019-05-30T20:08:03.238Z,101718.96
2019-05-30T20:10:42.279Z,101721.20
2019-05-30T20:13:30.965Z,101723.91
2019-05-30T20:16:19.154Z,101728.92
2019-05-30T20:19:00.463Z,101735.78
2019-05-30T20:24:20.130Z,101728.27
2019-05-30T20:26:50.669Z,101727.84
2019-05-30T20:29:46.434Z,101731.11
2019-05-30T20:33:07.760Z,101729.98
2019-05-30T20:36:11.147Z,101733.40
2019-05-30T20:39:01.817Z,101728.87
2019-05-30T20:41:43.600Z,101734.76
2019-05-30T20:44:24.472Z,101735.55
2019-05-30T20:47:14.782Z,101736.81
2019-05-30T20:50:01.494Z,101741.45
2019-05-30T20:52:47.508Z,101739.13
2019-05-30T20:55:18.024Z,101735.08
2019-05-30T20:57:49.048Z,101731.47
2019-05-30T21:00:20.464Z,101739.96
2019-05-30T21:02:58.798Z,101735.22
2019-05-30T21:05:29.544Z,101736.81
2019-05-30T21:08:01.326Z,101738.16
2019-05-30T21:10:32.646Z,101735.11
2019-05-30T21:13:04.375Z,101736.62
2019-05-30T21:15:50.804Z,101732.86
2019-05-30T21:18:42.366Z,101742.05
2019-05-30T21:21:52.958Z,101738.21
2019-05-30T21:24:31.684Z,101740.27
2019-05-30T21:27:02.849Z,101734.49
2019-05-30T21:29:34.692Z,101732.59
2019-05-30T21:32:07.469Z,101734.19
2019-05-30T21:34:40.111Z,101731.28
2019-05-30T21:37:13.533Z,101730.06
2019-05-30T21:39:48.172Z,101734.50
2019-05-30T21:42:20.988Z,101735.98
2019-05-30T21:44:53.900Z,101734.83
2019-05-30T21:47:26.327Z,101730.62
2019-05-30T21:49:58.841Z,101730.62
2019-05-30T21:52:31.003Z,101723.42
2019-05-30T21:55:03.397Z,101733.48
2019-05-30T21:57:35.322Z,101735.01
2019-05-30T22:00:10.571Z,101727.13
2019-05-30T22:02:46.683Z,101730.56
2019-05-30T22:05:18.459Z,101726.80
2019-05-30T22:07:49.747Z,101728.62
2019-05-30T22:10:21.287Z,101728.53
2019-05-30T22:12:53.093Z,101729.65
2019-05-30T22:15:24.692Z,101731.03
2019-05-30T22:17:56.549Z,101733.17
2019-05-30T22:20:28.248Z,101734.28
2019-05-30T22:22:59.684Z,101737.70
2019-05-30T22:25:32.235Z,101739.20
2019-05-30T22:28:04.248Z,101739.69
2019-05-30T22:30:36.155Z,101726.67
2019-05-30T22:33:07.888Z,101722.48
2019-05-30T22:35:39.117Z,101729.42
2019-05-30T22:38:10.505Z,101727.40
2019-05-30T22:40:42.056Z,101725.61
2019-05-30T22:43:24.876Z,101723.30
2019-05-30T22:45:48.105Z,101723.12
2019-05-30T22:48:20.121Z,101721.91
2019-05-30T22:50:52.900Z,101723.90
2019-05-30T22:53:25.784Z,101720.69
2019-05-30T22:55:57.399Z,101724.92
2019-05-30T22:58:29.120Z,101729.80
2019-05-30T23:04:30.591Z,101727.03
2019-05-30T23:07:01.805Z,101731.02
2019-05-30T23:09:33.526Z,101724.99
2019-05-30T23:12:04.670Z,101727.80
2019-05-30T23:14:35.968Z,101728.22
2019-05-30T23:17:08.675Z,101728.73
2019-05-30T23:19:39.957Z,101730.03
2019-05-30T23:22:11.616Z,101727.63
2019-05-30T23:24:43.137Z,101726.94
2019-05-30T23:27:14.469Z,101728.94
2019-05-30T23:29:46.224Z,101724.53
2019-05-30T23:32:17.227Z,101722.63
2019-05-30T23:34:50.082Z,101723.36
2019-05-30T23:37:21.643Z,101720.74
2019-05-30T23:39:53.295Z,101716.11
2019-05-30T23:42:24.257Z,101721.94
2019-05-30T23:44:55.649Z,101717.75
2019-05-30T23:47:28.686Z,101721.71
2019-05-30T23:50:00.334Z,101724.11
2019-05-30T23:52:31.721Z,101720.53
2019-05-30T23:55:02.880Z,101715.31
2019-05-30T23:57:34.424Z,101713.49
